createdAt,value
2018-11-04T00:00:17.517Z,1018.37
2018-11-04T00:01:17.498Z,1018.36
2018-11-04T00:02:17.482Z,1018.37
2018-11-04T00:03:17.445Z,1018.37
2018-11-04T00:04:17.429Z,1018.37
2018-11-04T00:05:17.405Z,1018.34
2018-11-04T00:06:17.374Z,1018.30
2018-11-04T00:07:17.355Z,1018.27
2018-11-04T00:08:17.337Z,1018.27
2018-11-04T00:09:17.323Z,1018.23
2018-11-04T00:10:17.287Z,1018.26
2018-11-04T00:11:17.265Z,1018.27
2018-11-04T00:12:17.243Z,1018.21
2018-11-04T00:13:17.353Z,1018.21
2018-11-04T00:14:17.208Z,1018.22
2018-11-04T00:15:17.189Z,1018.20
2018-11-04T00:16:17.167Z,1018.15
2018-11-04T00:17:17.138Z,1018.14
2018-11-04T00:18:17.111Z,1018.18
2018-11-04T00:19:17.101Z,1018.14
2018-11-04T00:20:17.107Z,1018.08
2018-11-04T00:21:17.058Z,1018.08
2018-11-04T00:22:17.020Z,1018.08
2018-11-04T00:23:16.995Z,1018.09
2018-11-04T00:24:16.992Z,1018.08
2018-11-04T00:25:16.968Z,1018.08
2018-11-04T00:26:16.947Z,1018.07
2018-11-04T00:27:16.924Z,1018.04
2018-11-04T00:28:16.889Z,1018.04
2018-11-04T00:29:16.867Z,1018.04
2018-11-04T00:30:16.859Z,1018.02
2018-11-04T00:31:16.818Z,1018.04
2018-11-04T00:32:16.801Z,1017.97
2018-11-04T00:33:16.776Z,1018.00
2018-11-04T00:34:16.772Z,1017.93
2018-11-04T00:35:16.730Z,1017.90
2018-11-04T00:36:16.709Z,1017.85
2018-11-04T00:37:16.701Z,1017.90
2018-11-04T00:38:16.667Z,1017.93
2018-11-04T00:39:16.657Z,1017.89
2018-11-04T00:40:16.621Z,1017.87
2018-11-04T00:41:16.599Z,1017.85
2018-11-04T00:42:16.583Z,1017.85
2018-11-04T00:43:16.587Z,1017.83
2018-11-04T00:44:16.527Z,1017.82
2018-11-04T00:45:16.541Z,1017.84
2018-11-04T00:46:16.484Z,1017.81
2018-11-04T00:47:16.463Z,1017.83
2018-11-04T00:48:16.463Z,1017.79
2018-11-04T00:49:16.442Z,1017.77
2018-11-04T00:50:16.424Z,1017.77
2018-11-04T00:51:16.371Z,1017.72
2018-11-04T00:52:16.355Z,1017.75
2018-11-04T00:53:16.380Z,1017.71
2018-11-04T00:54:16.341Z,1017.70
2018-11-04T00:55:16.285Z,1017.73
2018-11-04T00:56:16.341Z,1017.75
2018-11-04T00:57:16.242Z,1017.72
2018-11-04T00:58:16.218Z,1017.72
2018-11-04T00:59:16.215Z,1017.71
2018-11-04T01:00:16.277Z,1017.73
2018-11-04T01:01:16.149Z,1017.75
2018-11-04T01:02:16.126Z,1017.74
2018-11-04T01:03:16.111Z,1017.71
2018-11-04T01:04:16.094Z,1017.69
2018-11-04T01:05:16.080Z,1017.64
2018-11-04T01:06:16.047Z,1017.67
2018-11-04T01:07:16.018Z,1017.62
2018-11-04T01:08:15.995Z,1017.64
2018-11-04T01:09:16.056Z,1017.63
2018-11-04T01:10:15.967Z,1017.61
2018-11-04T01:11:15.943Z,1017.64
2018-11-04T01:12:15.907Z,1017.65
2018-11-04T01:13:15.898Z,1017.62
2018-11-04T01:14:15.863Z,1017.62
2018-11-04T01:15:15.846Z,1017.57
2018-11-04T01:16:15.840Z,1017.56
2018-11-04T01:17:15.803Z,1017.51
2018-11-04T01:18:15.774Z,1017.47
2018-11-04T01:19:15.750Z,1017.48
2018-11-04T01:20:15.735Z,1017.47
2018-11-04T01:21:15.786Z,1017.47
2018-11-04T01:22:15.707Z,1017.48
2018-11-04T01:23:15.664Z,1017.46
2018-11-04T01:24:15.688Z,1017.47
2018-11-04T01:25:15.620Z,1017.43
2018-11-04T01:26:15.592Z,1017.45
2018-11-04T01:27:15.594Z,1017.44
2018-11-04T01:28:15.550Z,1017.44
2018-11-04T01:29:15.546Z,1017.39
2018-11-04T01:30:15.543Z,1017.44
2018-11-04T01:31:15.508Z,1017.42
2018-11-04T01:32:15.470Z,1017.39
2018-11-04T01:33:15.452Z,1017.37
2018-11-04T01:34:15.418Z,1017.31
2018-11-04T01:35:15.426Z,1017.31
2018-11-04T01:36:15.374Z,1017.34
2018-11-04T01:37:15.370Z,1017.30
2018-11-04T01:38:15.345Z,1017.26
2018-11-04T01:39:15.319Z,1017.23
2018-11-04T01:40:15.287Z,1017.22
2018-11-04T01:41:15.260Z,1017.22
2018-11-04T01:42:15.252Z,1017.20
2018-11-04T01:43:15.219Z,1017.13
2018-11-04T01:44:15.193Z,1017.13
2018-11-04T01:45:15.168Z,1017.15
2018-11-04T01:46:15.151Z,1017.15
2018-11-04T01:47:15.144Z,1017.14
2018-11-04T01:48:15.097Z,1017.13
2018-11-04T01:49:15.094Z,1017.10
2018-11-04T01:50:15.060Z,1017.12
2018-11-04T01:51:15.038Z,1017.05
2018-11-04T01:52:15.016Z,1017.07
2018-11-04T01:53:15.015Z,1017.09
2018-11-04T01:54:14.968Z,1017.06
2018-11-04T01:55:14.969Z,1017.07
2018-11-04T01:56:14.931Z,1017.07
2018-11-04T01:57:14.906Z,1017.04
2018-11-04T01:58:14.884Z,1017.02
2018-11-04T01:59:14.860Z,1016.97
2018-11-04T02:00:14.845Z,1016.94
2018-11-04T02:01:14.831Z,1016.91
2018-11-04T02:02:14.792Z,1016.93
2018-11-04T02:03:14.773Z,1016.88
2018-11-04T02:04:14.749Z,1016.89
2018-11-04T02:05:14.732Z,1016.87
2018-11-04T02:06:14.726Z,1016.84
2018-11-04T02:07:14.679Z,1016.83
2018-11-04T02:08:14.659Z,1016.80
2018-11-04T02:09:14.640Z,1016.80
2018-11-04T02:10:14.617Z,1016.79
2018-11-04T02:11:14.612Z,1016.75
2018-11-04T02:12:14.572Z,1016.74
2018-11-04T02:13:14.568Z,1016.69
2018-11-04T02:14:14.525Z,1016.73
2018-11-04T02:15:14.503Z,1016.68
2018-11-04T02:16:14.481Z,1016.67
2018-11-04T02:17:14.460Z,1016.69
2018-11-04T02:18:14.442Z,1016.63
2018-11-04T02:19:14.428Z,1016.64
2018-11-04T02:20:14.410Z,1016.57
2018-11-04T02:21:14.371Z,1016.56
2018-11-04T02:22:14.351Z,1016.57
2018-11-04T02:23:14.341Z,1016.56
2018-11-04T02:24:14.300Z,1016.56
2018-11-04T02:25:14.295Z,1016.55
2018-11-04T02:26:14.258Z,1016.51
2018-11-04T02:27:14.237Z,1016.51
2018-11-04T02:28:14.212Z,1016.48
2018-11-04T02:29:14.206Z,1016.50
2018-11-04T02:30:14.186Z,1016.51
2018-11-04T02:31:14.163Z,1016.50
2018-11-04T02:32:14.122Z,1016.50
2018-11-04T02:33:14.105Z,1016.45
2018-11-04T02:34:14.113Z,1016.44
2018-11-04T02:35:14.057Z,1016.41
2018-11-04T02:36:14.039Z,1016.39
2018-11-04T02:37:14.031Z,1016.40
2018-11-04T02:38:13.999Z,1016.43
2018-11-04T02:39:13.969Z,1016.45
2018-11-04T02:40:13.973Z,1016.38
2018-11-04T02:41:13.921Z,1016.36
2018-11-04T02:42:13.901Z,1016.31
2018-11-04T02:43:13.895Z,1016.31
2018-11-04T02:44:13.854Z,1016.27
2018-11-04T02:45:13.835Z,1016.25
2018-11-04T02:46:13.812Z,1016.27
2018-11-04T02:47:13.791Z,1016.26
2018-11-04T02:48:13.787Z,1016.22
2018-11-04T02:49:13.742Z,1016.23
2018-11-04T02:50:13.738Z,1016.22
2018-11-04T02:51:13.701Z,1016.21
2018-11-04T02:52:13.696Z,1016.21
2018-11-04T02:53:13.663Z,1016.20
2018-11-04T02:54:13.677Z,1016.18
2018-11-04T02:55:13.627Z,1016.17
2018-11-04T02:56:13.590Z,1016.14
2018-11-04T02:57:13.565Z,1016.12
2018-11-04T02:58:14.256Z,1016.14
2018-11-04T02:59:13.542Z,1016.18
2018-11-04T03:00:13.508Z,1016.11
2018-11-04T03:01:13.475Z,1016.11
2018-11-04T03:02:13.479Z,1016.09
2018-11-04T03:03:13.440Z,1016.07
2018-11-04T03:04:13.431Z,1016.08
2018-11-04T03:05:13.390Z,1016.11
2018-11-04T03:06:13.365Z,1016.07
2018-11-04T03:07:13.342Z,1016.09
2018-11-04T03:08:13.316Z,1016.07
2018-11-04T03:09:13.316Z,1016.07
2018-11-04T03:10:13.277Z,1016.04
2018-11-04T03:11:13.275Z,1016.05
2018-11-04T03:12:13.247Z,1016.04
2018-11-04T03:13:13.225Z,1016.04
2018-11-04T03:14:13.196Z,1016.04
2018-11-04T03:15:13.162Z,1016.02
2018-11-04T03:16:13.140Z,1016.04
2018-11-04T03:17:13.118Z,1016.03
2018-11-04T03:18:13.122Z,1016.00
2018-11-04T03:19:13.077Z,1015.96
2018-11-04T03:20:13.058Z,1015.96
2018-11-04T03:21:13.028Z,1015.92
2018-11-04T03:22:13.018Z,1015.95
2018-11-04T03:23:12.987Z,1015.93
2018-11-04T03:24:13.001Z,1015.90
2018-11-04T03:25:12.942Z,1015.89
2018-11-04T03:26:12.930Z,1015.89
2018-11-04T03:27:12.917Z,1015.86
2018-11-04T03:28:12.900Z,1015.87
2018-11-04T03:29:12.871Z,1015.88
2018-11-04T03:30:12.832Z,1015.84
2018-11-04T03:31:12.807Z,1015.81
2018-11-04T03:32:12.805Z,1015.86
2018-11-04T03:33:12.768Z,1015.80
2018-11-04T03:34:12.741Z,1015.83
2018-11-04T03:35:12.721Z,1015.81
2018-11-04T03:36:12.721Z,1015.83
2018-11-04T03:37:12.682Z,1015.82
2018-11-04T03:38:12.656Z,1015.86
2018-11-04T03:39:12.631Z,1015.81
2018-11-04T03:40:12.608Z,1015.84
2018-11-04T03:41:12.605Z,1015.83
2018-11-04T03:42:12.581Z,1015.86
2018-11-04T03:43:12.540Z,1015.86
2018-11-04T03:44:12.536Z,1015.86
2018-11-04T03:45:12.502Z,1015.85
2018-11-04T03:46:12.499Z,1015.88
2018-11-04T03:47:12.456Z,1015.88
2018-11-04T03:48:12.467Z,1015.85
2018-11-04T03:49:12.411Z,1015.80
2018-11-04T03:50:12.448Z,1015.84
2018-11-04T03:51:12.373Z,1015.86
2018-11-04T03:52:12.358Z,1015.88
2018-11-04T03:53:12.346Z,1015.85
2018-11-04T03:54:12.299Z,1015.87
2018-11-04T03:55:12.287Z,1015.85
2018-11-04T03:56:12.264Z,1015.88
2018-11-04T03:57:12.233Z,1015.90
2018-11-04T03:58:12.224Z,1015.93
2018-11-04T03:59:12.190Z,1015.88
2018-11-04T04:00:12.168Z,1015.87
2018-11-04T04:01:12.147Z,1015.84
2018-11-04T04:02:12.126Z,1015.85
2018-11-04T04:03:12.106Z,1015.86
2018-11-04T04:04:12.102Z,1015.86
2018-11-04T04:05:12.055Z,1015.87
2018-11-04T04:06:12.032Z,1015.89
2018-11-04T04:07:12.014Z,1015.80
2018-11-04T04:08:12.059Z,1015.84
2018-11-04T04:09:11.994Z,1015.84
2018-11-04T04:10:11.959Z,1015.80
2018-11-04T04:11:11.922Z,1015.85
2018-11-04T04:12:11.899Z,1015.79
2018-11-04T04:13:11.878Z,1015.79
2018-11-04T04:14:11.853Z,1015.75
2018-11-04T04:15:11.849Z,1015.78
2018-11-04T04:16:11.824Z,1015.79
2018-11-04T04:17:11.791Z,1015.80
2018-11-04T04:18:11.766Z,1015.79
2018-11-04T04:19:11.745Z,1015.80
2018-11-04T04:20:11.734Z,1015.79
2018-11-04T04:21:11.698Z,1015.77
2018-11-04T04:22:11.675Z,1015.76
2018-11-04T04:23:11.652Z,1015.77
2018-11-04T04:24:11.633Z,1015.77
2018-11-04T04:25:11.610Z,1015.78
2018-11-04T04:26:11.601Z,1015.79
2018-11-04T04:27:11.564Z,1015.76
2018-11-04T04:28:11.540Z,1015.71
2018-11-04T04:29:11.517Z,1015.74
2018-11-04T04:30:11.498Z,1015.73
2018-11-04T04:31:11.490Z,1015.76
2018-11-04T04:32:11.449Z,1015.75
2018-11-04T04:33:11.426Z,1015.71
2018-11-04T04:34:11.410Z,1015.69
2018-11-04T04:35:11.386Z,1015.69
2018-11-04T04:36:11.382Z,1015.64
2018-11-04T04:37:11.341Z,1015.64
2018-11-04T04:38:11.323Z,1015.65
2018-11-04T04:39:11.302Z,1015.64
2018-11-04T04:40:11.278Z,1015.66
2018-11-04T04:41:11.253Z,1015.63
2018-11-04T04:42:11.250Z,1015.61
2018-11-04T04:43:11.209Z,1015.63
2018-11-04T04:44:11.188Z,1015.63
2018-11-04T04:45:11.164Z,1015.65
2018-11-04T04:46:11.140Z,1015.63
2018-11-04T04:47:11.118Z,1015.65
2018-11-04T04:48:11.113Z,1015.57
2018-11-04T04:49:11.081Z,1015.59
2018-11-04T04:50:11.054Z,1015.59
2018-11-04T04:51:11.033Z,1015.58
2018-11-04T04:52:11.010Z,1015.60
2018-11-04T04:53:11.003Z,1015.59
2018-11-04T04:54:10.963Z,1015.60
2018-11-04T04:55:10.943Z,1015.62
2018-11-04T04:56:10.922Z,1015.62
2018-11-04T04:57:10.898Z,1015.63
2018-11-04T04:58:10.888Z,1015.59
2018-11-04T04:59:10.850Z,1015.59
2018-11-04T05:00:10.831Z,1015.58
2018-11-04T05:01:10.806Z,1015.56
2018-11-04T05:02:10.795Z,1015.57
2018-11-04T05:03:10.785Z,1015.54
2018-11-04T05:04:10.740Z,1015.58
2018-11-04T05:05:10.718Z,1015.54
2018-11-04T05:06:10.694Z,1015.52
2018-11-04T05:07:10.676Z,1015.55
2018-11-04T05:08:10.668Z,1015.50
2018-11-04T05:09:10.636Z,1015.46
2018-11-04T05:10:10.628Z,1015.44
2018-11-04T05:11:10.589Z,1015.47
2018-11-04T05:12:10.575Z,1015.41
2018-11-04T05:13:10.557Z,1015.48
2018-11-04T05:14:10.540Z,1015.43
2018-11-04T05:15:10.495Z,1015.47
2018-11-04T05:16:10.478Z,1015.43
2018-11-04T05:17:10.455Z,1015.42
2018-11-04T05:18:10.438Z,1015.43
2018-11-04T05:19:10.428Z,1015.35
2018-11-04T05:20:10.390Z,1015.36
2018-11-04T05:21:10.389Z,1015.36
2018-11-04T05:22:10.345Z,1015.34
2018-11-04T05:23:10.337Z,1015.37
2018-11-04T05:24:10.298Z,1015.36
2018-11-04T05:25:10.302Z,1015.35
2018-11-04T05:26:10.275Z,1015.33
2018-11-04T05:27:10.248Z,1015.33
2018-11-04T05:28:10.206Z,1015.35
2018-11-04T05:29:10.192Z,1015.35
2018-11-04T05:30:10.186Z,1015.36
2018-11-04T05:31:10.152Z,1015.33
2018-11-04T05:32:10.124Z,1015.32
2018-11-04T05:33:10.105Z,1015.34
2018-11-04T05:34:10.088Z,1015.30
2018-11-04T05:35:10.104Z,1015.29
2018-11-04T05:36:10.054Z,1015.33
2018-11-04T05:37:10.019Z,1015.29
2018-11-04T05:38:10.024Z,1015.28
2018-11-04T05:39:09.972Z,1015.33
2018-11-04T05:40:09.949Z,1015.27
2018-11-04T05:41:09.943Z,1015.30
2018-11-04T05:42:09.924Z,1015.23
2018-11-04T05:43:09.884Z,1015.26
2018-11-04T05:44:09.860Z,1015.23
2018-11-04T05:45:09.838Z,1015.22
2018-11-04T05:46:09.819Z,1015.21
2018-11-04T05:47:09.812Z,1015.22
2018-11-04T05:48:09.775Z,1015.23
2018-11-04T05:49:09.751Z,1015.20
2018-11-04T05:50:09.733Z,1015.25
2018-11-04T05:51:09.707Z,1015.24
2018-11-04T05:52:09.685Z,1015.26
2018-11-04T05:53:09.684Z,1015.24
2018-11-04T05:54:09.645Z,1015.20
2018-11-04T05:55:09.629Z,1015.18
2018-11-04T05:56:09.599Z,1015.16
2018-11-04T05:57:09.583Z,1015.17
2018-11-04T05:58:09.591Z,1015.18
2018-11-04T05:59:09.537Z,1015.17
2018-11-04T06:00:09.515Z,1015.18
2018-11-04T06:01:09.488Z,1015.18
2018-11-04T06:02:09.479Z,1015.16
2018-11-04T06:03:09.471Z,1015.15
2018-11-04T06:04:09.428Z,1015.14
2018-11-04T06:05:09.400Z,1015.19
2018-11-04T06:06:09.382Z,1015.13
2018-11-04T06:07:09.366Z,1015.15
2018-11-04T06:08:09.359Z,1015.14
2018-11-04T06:09:09.332Z,1015.14
2018-11-04T06:10:09.290Z,1015.16
2018-11-04T06:11:09.275Z,1015.17
2018-11-04T06:12:09.246Z,1015.19
2018-11-04T06:13:09.543Z,1015.20
2018-11-04T06:14:09.203Z,1015.23
2018-11-04T06:15:09.192Z,1015.16
2018-11-04T06:16:09.161Z,1015.16
2018-11-04T06:17:09.141Z,1015.13
2018-11-04T06:18:09.141Z,1015.13
2018-11-04T06:19:09.110Z,1015.10
2018-11-04T06:20:09.079Z,1015.10
2018-11-04T06:21:09.073Z,1015.13
2018-11-04T06:22:09.037Z,1015.12
2018-11-04T06:23:09.014Z,1015.11
2018-11-04T06:24:08.997Z,1015.11
2018-11-04T06:25:08.994Z,1015.10
2018-11-04T06:26:08.949Z,1015.06
2018-11-04T06:27:08.926Z,1015.08
2018-11-04T06:28:08.902Z,1015.06
2018-11-04T06:29:08.956Z,1015.03
2018-11-04T06:30:08.855Z,1015.03
2018-11-04T06:31:08.853Z,1015.04
2018-11-04T06:32:08.821Z,1015.06
2018-11-04T06:33:08.805Z,1015.06
2018-11-04T06:34:08.773Z,1015.05
2018-11-04T06:35:08.766Z,1015.06
2018-11-04T06:36:08.754Z,1015.08
2018-11-04T06:37:08.727Z,1015.07
2018-11-04T06:38:08.689Z,1015.04
2018-11-04T06:39:08.666Z,1015.02
2018-11-04T06:40:08.651Z,1015.06
2018-11-04T06:41:08.688Z,1015.04
2018-11-04T06:42:08.626Z,1015.10
2018-11-04T06:43:08.583Z,1015.09
2018-11-04T06:44:08.567Z,1015.11
2018-11-04T06:45:08.556Z,1015.13
2018-11-04T06:46:08.520Z,1015.15
2018-11-04T06:47:08.619Z,1015.11
2018-11-04T06:48:08.501Z,1015.12
2018-11-04T06:49:08.454Z,1015.15
2018-11-04T06:50:08.432Z,1015.16
2018-11-04T06:51:08.409Z,1015.12
2018-11-04T06:52:08.408Z,1015.15
2018-11-04T06:53:08.394Z,1015.12
2018-11-04T06:54:08.349Z,1015.10
2018-11-04T06:55:08.326Z,1015.13
2018-11-04T06:56:08.303Z,1015.11
2018-11-04T06:57:08.285Z,1015.10
2018-11-04T06:58:08.289Z,1015.11
2018-11-04T06:59:08.239Z,1015.17
2018-11-04T07:00:08.324Z,1015.12
2018-11-04T07:01:08.198Z,1015.09
2018-11-04T07:02:08.185Z,1015.12
2018-11-04T07:03:08.186Z,1015.12
2018-11-04T07:04:08.155Z,1015.14
2018-11-04T07:05:08.115Z,1015.13
2018-11-04T07:06:08.094Z,1015.12
2018-11-04T07:07:08.067Z,1015.12
2018-11-04T07:08:08.065Z,1015.13
2018-11-04T07:09:08.193Z,1015.15
2018-11-04T07:10:08.015Z,1015.09
2018-11-04T07:11:07.981Z,1015.11
2018-11-04T07:12:07.963Z,1015.11
2018-11-04T07:13:07.941Z,1015.09
2018-11-04T07:14:07.923Z,1015.09
2018-11-04T07:15:07.918Z,1015.07
2018-11-04T07:16:07.884Z,1015.07
2018-11-04T07:17:07.856Z,1015.07
2018-11-04T07:18:07.836Z,1015.04
2018-11-04T07:19:07.822Z,1015.06
2018-11-04T07:20:07.956Z,1015.05
2018-11-04T07:21:07.771Z,1015.09
2018-11-04T07:22:07.760Z,1015.14
2018-11-04T07:23:07.730Z,1015.12
2018-11-04T07:24:07.713Z,1015.15
2018-11-04T07:25:07.711Z,1015.18
2018-11-04T07:26:07.668Z,1015.17
2018-11-04T07:27:07.648Z,1015.20
2018-11-04T07:28:07.633Z,1015.17
2018-11-04T07:29:07.622Z,1015.16
2018-11-04T07:30:07.616Z,1015.13
2018-11-04T07:31:07.565Z,1015.18
2018-11-04T07:32:07.643Z,1015.15
2018-11-04T07:33:07.536Z,1015.15
2018-11-04T07:34:07.514Z,1015.14
2018-11-04T07:35:07.481Z,1015.16
2018-11-04T07:36:07.466Z,1015.16
2018-11-04T07:37:07.460Z,1015.18
2018-11-04T07:38:07.434Z,1015.13
2018-11-04T07:39:07.399Z,1015.12
2018-11-04T07:40:07.379Z,1015.08
2018-11-04T07:41:07.357Z,1015.08
2018-11-04T07:42:07.345Z,1015.04
2018-11-04T07:43:07.338Z,1015.07
2018-11-04T07:44:07.329Z,1015.05
2018-11-04T07:45:07.273Z,1015.08
2018-11-04T07:46:07.261Z,1015.07
2018-11-04T07:47:07.232Z,1015.07
2018-11-04T07:48:07.230Z,1015.07
2018-11-04T07:49:07.189Z,1015.02
2018-11-04T07:50:07.169Z,1015.02
2018-11-04T07:51:07.156Z,1015.01
2018-11-04T07:52:07.138Z,1015.03
2018-11-04T07:53:07.168Z,1015.00
2018-11-04T07:54:07.089Z,1014.99
2018-11-04T07:55:07.077Z,1014.98
2018-11-04T07:56:07.049Z,1014.94
2018-11-04T07:57:07.474Z,1014.94
2018-11-04T07:58:07.031Z,1014.90
2018-11-04T07:59:06.989Z,1014.93
2018-11-04T08:02:15.748Z,1014.86
2018-11-04T08:03:15.745Z,1014.87
2018-11-04T08:04:15.839Z,1014.83
2018-11-04T08:05:15.688Z,1014.85
2018-11-04T08:06:15.670Z,1014.83
2018-11-04T08:07:15.647Z,1014.83
2018-11-04T08:08:15.660Z,1014.82
2018-11-04T08:09:15.609Z,1014.78
2018-11-04T08:10:15.587Z,1014.73
2018-11-04T08:11:15.566Z,1014.74
2018-11-04T08:12:15.543Z,1014.75
2018-11-04T08:13:15.537Z,1014.73
2018-11-04T08:14:15.523Z,1014.72
2018-11-04T08:17:09.257Z,1014.67
2018-11-04T08:18:09.233Z,1014.68
2018-11-04T08:19:09.208Z,1014.73
2018-11-04T08:20:09.206Z,1014.72
2018-11-04T08:21:09.218Z,1014.71
2018-11-04T08:22:09.149Z,1014.68
2018-11-04T08:23:09.141Z,1014.72
2018-11-04T08:24:09.114Z,1014.68
2018-11-04T08:25:09.118Z,1014.68
2018-11-04T08:26:09.069Z,1014.65
2018-11-04T08:27:09.053Z,1014.64
2018-11-04T08:28:09.035Z,1014.62
2018-11-04T08:29:09.827Z,1014.67
2018-11-04T08:30:09.008Z,1014.67
2018-11-04T08:31:08.970Z,1014.65
2018-11-04T08:32:08.949Z,1014.66
2018-11-04T08:33:08.938Z,1014.63
2018-11-04T08:34:08.914Z,1014.65
2018-11-04T08:35:08.911Z,1014.61
2018-11-04T08:36:08.873Z,1014.64
2018-11-04T08:37:08.860Z,1014.67
2018-11-04T08:38:08.835Z,1014.64
2018-11-04T08:39:08.814Z,1014.60
2018-11-04T08:40:08.961Z,1014.63
2018-11-04T08:41:08.774Z,1014.64
2018-11-04T08:42:08.757Z,1014.67
2018-11-04T08:43:08.740Z,1014.66
2018-11-04T08:44:08.733Z,1014.61
2018-11-04T08:45:08.716Z,1014.60
2018-11-04T08:46:08.707Z,1014.58
2018-11-04T08:47:08.663Z,1014.64
2018-11-04T08:48:08.634Z,1014.62
2018-11-04T08:49:08.620Z,1014.62
2018-11-04T08:50:08.616Z,1014.60
2018-11-04T08:51:08.576Z,1014.56
2018-11-04T08:52:08.583Z,1014.55
2018-11-04T08:53:08.544Z,1014.58
2018-11-04T08:54:08.534Z,1014.56
2018-11-04T08:55:08.506Z,1014.60
2018-11-04T08:56:08.483Z,1014.53
2018-11-04T08:57:08.464Z,1014.56
2018-11-04T08:58:08.459Z,1014.55
2018-11-04T08:59:08.430Z,1014.56
2018-11-04T09:00:08.436Z,1014.55
2018-11-04T09:01:08.381Z,1014.56
2018-11-04T09:02:08.378Z,1014.60
2018-11-04T09:03:08.362Z,1014.61
2018-11-04T09:04:08.332Z,1014.61
2018-11-04T09:05:08.311Z,1014.61
2018-11-04T09:06:08.287Z,1014.61
2018-11-04T09:07:08.265Z,1014.58
2018-11-04T09:08:08.264Z,1014.58
2018-11-04T09:09:08.243Z,1014.60
2018-11-04T09:10:08.210Z,1014.62
2018-11-04T09:11:08.190Z,1014.62
2018-11-04T09:12:08.194Z,1014.60
2018-11-04T09:13:08.161Z,1014.56
2018-11-04T09:14:08.200Z,1014.60
2018-11-04T09:15:08.114Z,1014.60
2018-11-04T09:16:08.095Z,1014.56
2018-11-04T09:17:08.073Z,1014.58
2018-11-04T09:18:08.071Z,1014.54
2018-11-04T09:19:08.035Z,1014.56
2018-11-04T09:20:08.017Z,1014.56
2018-11-04T09:21:08.002Z,1014.56
2018-11-04T09:22:07.996Z,1014.55
2018-11-04T09:23:07.984Z,1014.52
2018-11-04T09:24:07.948Z,1014.48
2018-11-04T09:25:07.939Z,1014.46
2018-11-04T09:26:07.904Z,1014.44
2018-11-04T09:27:07.885Z,1014.45
2018-11-04T09:28:07.873Z,1014.42
2018-11-04T09:29:07.929Z,1014.38
2018-11-04T09:30:07.823Z,1014.41
2018-11-04T09:31:07.801Z,1014.41
2018-11-04T09:32:07.786Z,1014.42
2018-11-04T09:33:07.762Z,1014.41
2018-11-04T09:34:07.762Z,1014.41
2018-11-04T09:35:07.948Z,1014.45
2018-11-04T09:36:07.836Z,1014.43
2018-11-04T09:37:07.701Z,1014.41
2018-11-04T09:38:07.669Z,1014.41
2018-11-04T09:39:07.672Z,1014.38
2018-11-04T09:40:07.641Z,1014.37
2018-11-04T09:41:07.609Z,1014.37
2018-11-04T09:42:07.600Z,1014.41
2018-11-04T09:43:07.580Z,1014.42
2018-11-04T09:44:07.557Z,1014.44
2018-11-04T09:45:07.554Z,1014.46
2018-11-04T09:46:07.580Z,1014.48
2018-11-04T09:47:07.535Z,1014.42
2018-11-04T09:48:07.484Z,1014.47
2018-11-04T09:49:07.462Z,1014.46
2018-11-04T09:50:07.594Z,1014.41
2018-11-04T09:51:07.455Z,1014.40
2018-11-04T09:52:07.408Z,1014.42
2018-11-04T09:53:07.394Z,1014.44
2018-11-04T09:54:07.368Z,1014.41
2018-11-04T09:55:07.368Z,1014.42
2018-11-04T09:56:07.340Z,1014.44
2018-11-04T09:57:07.310Z,1014.43
2018-11-04T09:58:07.315Z,1014.42
2018-11-04T09:59:07.272Z,1014.38
2018-11-04T10:00:07.261Z,1014.39
2018-11-04T10:01:07.264Z,1014.38
2018-11-04T10:02:07.230Z,1014.37
2018-11-04T10:03:07.218Z,1014.39
2018-11-04T10:04:07.181Z,1014.38
2018-11-04T10:05:07.164Z,1014.40
2018-11-04T10:06:07.153Z,1014.35
2018-11-04T10:07:07.147Z,1014.37
2018-11-04T10:08:07.136Z,1014.41
2018-11-04T10:09:07.090Z,1014.40
2018-11-04T10:10:07.068Z,1014.42
2018-11-04T10:11:07.065Z,1014.40
2018-11-04T10:12:07.037Z,1014.37
2018-11-04T10:13:07.059Z,1014.41
2018-11-04T10:14:07.014Z,1014.37
2018-11-04T10:15:06.978Z,1014.41
2018-11-04T10:16:06.969Z,1014.37
2018-11-04T10:17:06.958Z,1014.37
2018-11-04T10:18:06.939Z,1014.37
2018-11-04T10:19:07.236Z,1014.37
2018-11-04T10:20:07.288Z,1014.37
2018-11-04T10:21:07.448Z,1014.33
2018-11-04T10:22:06.854Z,1014.32
2018-11-04T10:23:06.834Z,1014.34
2018-11-04T10:24:06.812Z,1014.33
2018-11-04T10:25:06.798Z,1014.30
2018-11-04T10:26:06.806Z,1014.27
2018-11-04T10:27:06.773Z,1014.24
2018-11-04T10:28:06.741Z,1014.23
2018-11-04T10:29:06.726Z,1014.20
2018-11-04T10:30:06.711Z,1014.19
2018-11-04T10:31:06.704Z,1014.17
2018-11-04T10:32:06.673Z,1014.18
2018-11-04T10:33:06.660Z,1014.14
2018-11-04T10:34:06.659Z,1014.13
2018-11-04T10:35:06.616Z,1014.16
2018-11-04T10:36:06.619Z,1014.11
2018-11-04T10:37:06.600Z,1014.12
2018-11-04T10:38:06.571Z,1014.10
2018-11-04T10:39:06.565Z,1014.10
2018-11-04T10:40:06.534Z,1014.09
2018-11-04T10:41:06.507Z,1014.09
2018-11-04T10:42:06.493Z,1014.05
2018-11-04T10:43:06.503Z,1014.04
2018-11-04T10:44:06.457Z,1014.13
2018-11-04T10:45:06.440Z,1014.06
2018-11-04T10:46:06.438Z,1014.06
2018-11-04T10:47:06.408Z,1014.00
2018-11-04T10:48:06.393Z,1014.00
2018-11-04T10:49:06.365Z,1013.97
2018-11-04T10:50:06.356Z,1013.99
2018-11-04T10:51:06.347Z,1013.93
2018-11-04T10:52:06.327Z,1013.99
2018-11-04T10:53:06.294Z,1013.98
2018-11-04T10:54:06.276Z,1014.01
2018-11-04T10:55:06.252Z,1013.98
2018-11-04T10:56:06.248Z,1013.94
2018-11-04T10:57:06.238Z,1013.96
2018-11-04T10:58:06.204Z,1013.95
2018-11-04T10:59:06.189Z,1013.91
2018-11-04T11:00:06.165Z,1013.88
2018-11-04T11:01:06.160Z,1013.88
2018-11-04T11:02:06.133Z,1013.88
2018-11-04T11:03:06.118Z,1013.85
2018-11-04T11:04:06.113Z,1013.85
2018-11-04T11:05:06.105Z,1013.80
2018-11-04T11:06:06.059Z,1013.75
2018-11-04T11:07:06.041Z,1013.73
2018-11-04T11:08:06.045Z,1013.72
2018-11-04T11:09:06.013Z,1013.71
2018-11-04T11:10:06.007Z,1013.64
2018-11-04T11:11:06.073Z,1013.66
2018-11-04T11:12:05.981Z,1013.56
2018-11-04T11:13:05.949Z,1013.61
2018-11-04T11:14:05.918Z,1013.56
2018-11-04T11:15:05.902Z,1013.56
2018-11-04T11:16:05.886Z,1013.55
2018-11-04T11:17:05.874Z,1013.52
2018-11-04T11:18:05.871Z,1013.50
2018-11-04T11:19:05.840Z,1013.47
2018-11-04T11:20:05.811Z,1013.41
2018-11-04T11:21:05.793Z,1013.42
2018-11-04T11:22:05.774Z,1013.42
2018-11-04T11:23:05.919Z,1013.39
2018-11-04T11:24:05.753Z,1013.38
2018-11-04T11:25:05.720Z,1013.36
2018-11-04T11:26:05.708Z,1013.33
2018-11-04T11:27:05.722Z,1013.31
2018-11-04T11:28:05.709Z,1013.22
2018-11-04T11:29:05.654Z,1013.23
2018-11-04T11:30:05.731Z,1013.26
2018-11-04T11:31:05.636Z,1013.27
2018-11-04T11:32:05.599Z,1013.25
2018-11-04T11:33:05.593Z,1013.25
2018-11-04T11:34:05.586Z,1013.22
2018-11-04T11:35:05.549Z,1013.22
2018-11-04T11:36:05.545Z,1013.19
2018-11-04T11:37:05.515Z,1013.14
2018-11-04T11:38:05.559Z,1013.12
2018-11-04T11:39:05.502Z,1013.11
2018-11-04T11:40:05.463Z,1013.19
2018-11-04T11:41:05.443Z,1013.18
2018-11-04T11:42:05.433Z,1013.15
2018-11-04T11:43:05.413Z,1013.11
2018-11-04T11:44:05.411Z,1013.06
2018-11-04T11:45:05.385Z,1013.05
2018-11-04T11:46:05.369Z,1013.04
2018-11-04T11:47:05.353Z,1013.01
2018-11-04T11:48:05.329Z,1013.06
2018-11-04T11:49:05.353Z,1013.00
2018-11-04T11:50:05.311Z,1013.05
2018-11-04T11:51:05.308Z,1013.04
2018-11-04T11:52:05.263Z,1012.99
2018-11-04T11:53:05.247Z,1013.01
2018-11-04T11:54:05.229Z,1012.96
2018-11-04T11:55:05.211Z,1012.96
2018-11-04T11:56:05.211Z,1012.89
2018-11-04T11:57:05.179Z,1012.91
2018-11-04T11:58:05.171Z,1012.89
2018-11-04T11:59:05.152Z,1012.91
2018-11-04T12:00:05.130Z,1012.91
2018-11-04T12:01:05.130Z,1012.92
2018-11-04T12:02:05.145Z,1012.88
2018-11-04T12:03:05.084Z,1012.87
2018-11-04T12:04:05.057Z,1012.82
2018-11-04T12:05:05.052Z,1012.80
2018-11-04T12:06:05.053Z,1012.76
2018-11-04T12:07:05.021Z,1012.72
2018-11-04T12:08:04.999Z,1012.76
2018-11-04T12:09:04.980Z,1012.81